Time;durP1;ratioP1;P1;durP2;ratioP2;P2;SDS_P1;SDS_P2;PMS_P1;PMS_P2;Temp;Humidity;BMP_temperature;BMP_pressure;BME280_temperature;BME280_humidity;BME280_pressure;Samples;Min_cycle;Max_cycle;Signal;HPM_P1;HPM_P2
2023/09/01 00:01:37;;;;;;;4.90;2.25;;;;;;;19.19;58.09;99290.31;4358048;32;33746;-89
2023/09/01 00:04:06;;;;;;;4.60;2.40;;;;;;;19.28;57.96;99292.78;4359159;32;34640;-85
2023/09/01 00:06:34;;;;;;;4.97;2.45;;;;;;;19.22;58.25;99297.28;4359522;32;34812;-89
2023/09/01 00:09:04;;;;;;;5.20;2.15;;;;;;;19.13;58.47;99293.06;4345595;32;34538;-91
2023/09/01 00:11:32;;;;;;;3.95;1.77;;;;;;;19.24;58.25;99300.72;4353677;32;33750;-85
2023/09/01 00:13:59;;;;;;;5.20;2.30;;;;;;;19.24;58.14;99295.47;4359398;32;34621;-85
2023/09/01 00:16:27;;;;;;;3.80;1.90;;;;;;;19.23;58.13;99299.00;4361936;32;33840;-88
2023/09/01 00:18:54;;;;;;;4.97;2.35;;;;;;;19.24;58.15;99296.34;4358954;32;35034;-88
2023/09/01 00:21:22;;;;;;;4.97;2.05;;;;;;;19.22;58.02;99294.66;4358612;32;33848;-85
2023/09/01 00:23:49;;;;;;;6.28;2.28;;;;;;;19.16;58.04;99306.13;4359011;32;33778;-85
2023/09/01 00:26:17;;;;;;;4.10;1.90;;;;;;;19.34;57.50;99302.28;4360903;32;34290;-83
2023/09/01 00:28:46;;;;;;;4.93;2.28;;;;;;;19.22;57.59;99300.78;4357977;32;34384;-84
2023/09/01 00:31:16;;;;;;;5.43;2.05;;;;;;;19.21;57.59;99304.31;4359571;32;33835;-87
2023/09/01 00:33:44;;;;;;;5.32;2.40;;;;;;;19.18;57.67;99302.59;4352554;32;34936;-91
2023/09/01 00:36:11;;;;;;;4.30;2.15;;;;;;;19.09;57.72;99301.91;4358588;32;33764;-85
2023/09/01 00:38:38;;;;;;;5.72;1.85;;;;;;;19.02;57.97;99301.16;4359609;32;33318;-94
2023/09/01 00:41:07;;;;;;;6.87;2.33;;;;;;;19.07;57.83;99301.06;4357838;32;33345;-84
2023/09/01 00:43:34;;;;;;;5.00;2.12;;;;;;;19.05;57.78;99306.34;4361294;32;34653;-95
2023/09/01 00:46:02;;;;;;;6.00;2.22;;;;;;;19.01;57.99;99306.44;4359923;32;34133;-83
2023/09/01 00:48:30;;;;;;;8.73;2.80;;;;;;;19.02;58.00;99302.94;4348976;32;34692;-93
2023/09/01 00:50:58;;;;;;;5.12;2.25;;;;;;;18.77;58.75;99311.25;4360881;32;33844;-89
2023/09/01 00:53:26;;;;;;;5.85;2.35;;;;;;;18.74;58.89;99311.31;4360673;32;34638;-93
2023/09/01 00:55:56;;;;;;;5.05;2.45;;;;;;;18.78;58.55;99310.34;4360926;32;34202;-90
2023/09/01 00:58:25;;;;;;;6.60;2.40;;;;;;;18.86;58.37;99305.81;4350456;32;34445;-91
2023/09/01 01:00:57;;;;;;;5.95;2.85;;;;;;;18.79;58.51;99309.50;4344998;32;34303;-89
2023/09/01 01:03:25;;;;;;;6.87;2.35;;;;;;;18.99;58.16;99311.72;4360927;32;33402;-85
2023/09/01 01:05:59;;;;;;;6.70;2.30;;;;;;;18.94;58.46;99303.94;4347038;32;32239;-82
2023/09/01 01:08:49;;;;;;;5.03;2.12;;;;;;;18.79;58.71;99308.59;4338458;32;32576;-85
2023/09/01 01:11:31;;;;;;;6.20;2.40;;;;;;;18.59;59.46;99311.56;4345290;32;33973;-89
2023/09/01 01:14:04;;;;;;;6.00;2.67;;;;;;;18.76;59.07;99312.16;4343503;32;33560;-89
2023/09/01 01:16:32;;;;;;;4.90;2.70;;;;;;;18.65;59.08;99311.47;4347848;32;34088;-93
2023/09/01 01:19:23;;;;;;;4.00;2.53;;;;;;;18.67;58.98;99310.50;4347822;32;34265;-92
2023/09/01 01:21:52;;;;;;;5.15;2.35;;;;;;;18.68;58.98;99319.28;4348649;32;33165;-91
2023/09/01 01:24:21;;;;;;;6.15;2.67;;;;;;;18.58;59.09;99310.69;4347505;32;32298;-84
2023/09/01 01:26:52;;;;;;;5.47;2.37;;;;;;;18.52;59.08;99308.16;4337291;32;33312;-92
2023/09/01 01:29:20;;;;;;;7.90;2.58;;;;;;;18.51;59.21;99308.19;4360150;32;34882;-88
2023/09/01 01:31:48;;;;;;;5.03;2.30;;;;;;;18.61;58.73;99304.53;4360703;32;34499;-93
2023/09/01 01:34:32;;;;;;;5.15;2.37;;;;;;;18.66;58.56;99306.16;4361340;32;34395;-84
2023/09/01 01:37:17;;;;;;;3.80;2.17;;;;;;;18.65;58.72;99306.19;4349494;32;34684;-90
2023/09/01 01:39:45;;;;;;;4.90;2.22;;;;;;;18.39;59.30;99304.88;4359269;32;34184;-85
2023/09/01 01:42:18;;;;;;;5.45;2.62;;;;;;;18.39;59.22;99306.66;4347316;32;33568;-91
2023/09/01 01:44:50;;;;;;;7.00;2.17;;;;;;;18.38;59.30;99303.16;4347648;32;34630;-91
2023/09/01 01:47:20;;;;;;;4.70;2.30;;;;;;;18.35;59.16;99297.09;4348563;32;88028;-91
2023/09/01 01:49:47;;;;;;;5.78;2.40;;;;;;;18.45;58.92;99298.69;4349258;32;34078;-86
2023/09/01 01:52:15;;;;;;;5.75;2.62;;;;;;;18.41;58.61;99313.63;4347666;32;33657;-91
2023/09/01 01:54:42;;;;;;;4.43;2.30;;;;;;;18.35;58.78;99311.09;4360098;32;34320;-88
2023/09/01 01:57:14;;;;;;;4.82;2.30;;;;;;;18.36;58.70;99310.19;4363771;32;34892;-83
2023/09/01 01:59:42;;;;;;;6.12;2.55;;;;;;;18.33;58.56;99310.22;4375892;32;33794;-89
2023/09/01 02:02:09;;;;;;;5.87;2.42;;;;;;;18.34;58.47;99311.12;4375323;32;34521;-88
2023/09/01 02:04:37;;;;;;;3.92;2.35;;;;;;;18.33;58.76;99323.34;4375639;32;33827;-88
2023/09/01 02:07:05;;;;;;;5.68;2.30;;;;;;;18.31;58.88;99321.66;4375591;32;34032;-92
2023/09/01 02:09:33;;;;;;;4.12;2.45;;;;;;;18.23;59.21;99330.53;4375402;32;35084;-88
2023/09/01 02:12:01;;;;;;;4.22;2.30;;;;;;;18.24;59.21;99336.63;4374774;32;33708;-84
2023/09/01 02:14:29;;;;;;;5.97;2.60;;;;;;;18.19;59.22;99333.22;4361889;32;32827;-88
2023/09/01 02:16:58;;;;;;;5.37;2.62;;;;;;;18.11;59.55;99340.34;4374708;32;34151;-92
2023/09/01 02:19:29;;;;;;;6.57;2.50;;;;;;;18.14;59.52;99340.28;4375101;32;34986;-92
2023/09/01 02:21:57;;;;;;;3.90;2.17;;;;;;;18.15;59.38;99336.78;4360263;32;32488;-87
2023/09/01 02:24:24;;;;;;;4.47;2.40;;;;;;;18.10;59.76;99330.72;4361473;32;33238;-88
2023/09/01 02:26:52;;;;;;;5.75;2.22;;;;;;;18.01;59.99;99338.75;4361094;32;34260;-91
2023/09/01 02:29:20;;;;;;;5.57;2.47;;;;;;;17.91;60.10;99343.25;4359506;32;33325;-87
2023/09/01 02:31:48;;;;;;;4.50;2.00;;;;;;;17.99;60.19;99344.87;4375329;32;33605;-89
2023/09/01 02:34:15;;;;;;;5.55;2.10;;;;;;;17.92;60.38;99342.38;4361340;32;33868;-82
2023/09/01 02:36:43;;;;;;;5.43;2.45;;;;;;;17.87;60.48;99345.03;4374877;32;33781;-87
2023/09/01 02:39:11;;;;;;;6.18;2.60;;;;;;;17.94;60.23;99344.06;4375561;32;33868;-84
2023/09/01 02:41:39;;;;;;;4.65;2.50;;;;;;;17.99;59.91;99336.13;4374849;32;33656;-92
2023/09/01 02:44:08;;;;;;;4.50;2.28;;;;;;;18.00;59.62;99340.50;4374844;32;33787;-91
2023/09/01 02:46:35;;;;;;;4.20;2.30;;;;;;;17.82;60.00;99344.25;4374787;32;33378;-84
2023/09/01 02:49:04;;;;;;;4.85;2.42;;;;;;;17.83;60.05;99339.84;4361709;32;33738;-91
2023/09/01 02:51:32;;;;;;;4.37;2.47;;;;;;;17.69;60.53;99342.62;4361607;32;33515;-83
2023/09/01 02:53:59;;;;;;;7.45;2.90;;;;;;;17.71;60.50;99341.72;4374934;32;33944;-87
2023/09/01 02:56:27;;;;;;;4.70;2.50;;;;;;;17.91;60.27;99336.22;4373897;32;34183;-92
2023/09/01 02:58:54;;;;;;;4.72;2.37;;;;;;;17.75;60.89;99338.22;4375011;32;35039;-87
2023/09/01 03:01:22;;;;;;;5.53;2.50;;;;;;;17.69;61.06;99337.37;4373202;32;33785;-92
2023/09/01 03:03:50;;;;;;;5.80;2.75;;;;;;;17.91;60.62;99336.22;4374611;32;34650;-91
2023/09/01 03:06:18;;;;;;;5.90;2.60;;;;;;;17.77;60.88;99340.81;4374704;32;34284;-90
2023/09/01 03:08:45;;;;;;;5.78;2.80;;;;;;;17.75;60.99;99332.09;4374820;32;34768;-90
2023/09/01 03:11:13;;;;;;;5.20;2.50;;;;;;;17.66;60.89;99330.44;4358871;32;34049;-90
2023/09/01 03:13:41;;;;;;;4.70;2.65;;;;;;;17.54;60.99;99333.22;4360316;32;34763;-91
2023/09/01 03:16:09;;;;;;;5.10;2.20;;;;;;;17.55;60.60;99334.97;4357718;32;34925;-92
2023/09/01 03:18:37;;;;;;;6.60;2.42;;;;;;;17.55;60.54;99334.97;4362307;32;33678;-84
2023/09/01 03:21:09;;;;;;;6.12;2.42;;;;;;;17.53;60.46;99336.72;4361545;32;33717;-83
2023/09/01 03:23:37;;;;;;;4.30;2.12;;;;;;;17.67;59.84;99339.16;4361653;32;34821;-92
2023/09/01 03:26:07;;;;;;;4.30;2.22;;;;;;;17.60;60.04;99337.50;4360688;32;33934;-87
2023/09/01 03:28:35;;;;;;;5.82;2.15;;;;;;;17.58;60.03;99336.66;4360314;32;34373;-89
2023/09/01 03:31:08;;;;;;;4.78;2.42;;;;;;;17.63;59.79;99337.47;4365073;32;33278;-84
2023/09/01 03:33:37;;;;;;;6.62;2.30;;;;;;;17.62;59.92;99339.25;4361806;32;33127;-85
2023/09/01 03:36:07;;;;;;;4.03;2.28;;;;;;;17.60;59.79;99338.37;4375696;32;33680;-92
2023/09/01 03:38:38;;;;;;;4.50;2.15;;;;;;;17.58;60.11;99344.50;4375250;32;34355;-87
2023/09/01 03:41:07;;;;;;;4.75;2.78;;;;;;;17.58;60.13;99344.50;4374947;32;34390;-92
2023/09/01 03:43:35;;;;;;;4.32;2.30;;;;;;;17.48;60.36;99346.41;4349562;32;34775;-93
2023/09/01 03:46:03;;;;;;;6.10;2.28;;;;;;;17.53;60.16;99347.19;4375248;32;35419;-87
2023/09/01 03:48:31;;;;;;;4.82;2.28;;;;;;;17.58;59.82;99340.16;4349502;32;33664;-93
2023/09/01 03:51:17;;;;;;;6.30;2.35;;;;;;;17.48;60.39;99349.88;4361638;32;33719;-85
2023/09/01 03:53:45;;;;;;;;;;;;;;;17.53;60.51;99352.44;4374166;32;33766;-89
2023/09/01 03:56:17;;;;;;;6.50;2.33;;;;;;;17.83;59.72;99345.97;4374518;32;35204;-84
2023/09/01 03:58:45;;;;;;;4.97;2.35;;;;;;;17.52;60.33;99355.97;4349051;32;34209;-92
2023/09/01 04:01:13;;;;;;;5.60;2.40;;;;;;;17.48;60.78;99367.38;4374419;32;32959;-91
2023/09/01 04:03:43;;;;;;;4.62;2.40;;;;;;;16.91;62.41;99368.00;4374568;32;33980;-91
2023/09/01 04:06:11;;;;;;;5.65;2.55;;;;;;;16.58;63.12;99376.09;4359591;32;32892;-81
2023/09/01 04:08:41;;;;;;;5.45;2.22;;;;;;;16.54;62.65;99370.88;4359864;32;33849;-91
2023/09/01 04:11:09;;;;;;;4.78;2.40;;;;;;;16.64;62.43;99357.75;4373522;32;33144;-92
2023/09/01 04:13:37;;;;;;;4.20;2.08;;;;;;;17.10;61.13;99350.34;4369253;32;32625;-89
2023/09/01 04:16:04;;;;;;;4.93;2.28;;;;;;;17.19;61.88;99359.84;4372765;32;34155;-93
2023/09/01 04:18:32;;;;;;;4.90;2.20;;;;;;;17.41;61.24;99366.56;4372835;32;34087;-84
2023/09/01 04:21:00;;;;;;;6.32;2.47;;;;;;;17.49;61.17;99362.09;4373587;32;33360;-89
2023/09/01 04:23:28;;;;;;;6.07;2.40;;;;;;;17.60;60.84;99366.34;4361404;32;34043;-88
2023/09/01 04:25:56;;;;;;;4.22;2.10;;;;;;;17.59;61.25;99362.00;4374968;32;34394;-91
2023/09/01 04:28:24;;;;;;;4.03;2.08;;;;;;;17.78;60.84;99365.28;4358752;32;34232;-88
2023/09/01 04:30:54;;;;;;;6.10;2.45;;;;;;;17.83;60.84;99369.56;4374142;32;33560;-83
2023/09/01 04:33:22;;;;;;;4.53;2.05;;;;;;;17.94;60.74;99372.91;4373619;32;33465;-84
2023/09/01 04:36:00;;;;;;;5.47;2.15;;;;;;;17.82;61.31;99366.97;4371318;32;34180;-84
2023/09/01 04:38:28;;;;;;;4.45;2.10;;;;;;;17.92;61.28;99356.34;4374917;32;35089;-93
2023/09/01 04:40:59;;;;;;;5.60;2.67;;;;;;;18.05;60.89;99372.78;4374518;32;33684;-83
2023/09/01 04:43:27;;;;;;;4.30;2.15;;;;;;;18.08;61.20;99364.00;4368437;32;33779;-92
2023/09/01 04:45:56;;;;;;;6.47;2.53;;;;;;;18.06;61.67;99365.75;4374891;32;34733;-92
2023/09/01 04:48:24;;;;;;;6.72;2.40;;;;;;;18.06;62.17;99364.00;4374780;32;33962;-86
2023/09/01 04:50:52;;;;;;;4.75;2.22;;;;;;;18.17;61.98;99362.09;4359812;32;33622;-83
2023/09/01 04:53:20;;;;;;;6.80;2.55;;;;;;;18.22;61.95;99362.91;4359901;32;34700;-84
2023/09/01 04:55:49;;;;;;;5.75;2.80;;;;;;;18.32;61.93;99357.50;4374447;32;34182;-89
2023/09/01 04:58:17;;;;;;;4.72;2.33;;;;;;;18.34;62.07;99356.59;4374542;32;33969;-84
2023/09/01 05:00:44;;;;;;;7.45;2.60;;;;;;;18.58;61.52;99357.09;4361117;32;33592;-91
2023/09/01 05:03:12;;;;;;;5.47;2.50;;;;;;;18.57;61.54;99355.38;4373665;32;34865;-88
2023/09/01 05:05:40;;;;;;;4.75;2.22;;;;;;;18.74;61.17;99357.72;4374060;32;33799;-92
2023/09/01 05:08:08;;;;;;;4.57;2.33;;;;;;;18.63;61.60;99355.25;4360349;32;33925;-91
2023/09/01 05:10:35;;;;;;;5.47;2.25;;;;;;;18.68;61.84;99363.94;4372427;32;32963;-92
2023/09/01 05:13:04;;;;;;;5.60;2.42;;;;;;;18.72;62.09;99360.37;4373462;32;34038;-91
2023/09/01 05:15:31;;;;;;;4.87;2.10;;;;;;;18.79;62.06;99364.66;4374241;32;35106;-84
2023/09/01 05:17:59;;;;;;;4.85;2.67;;;;;;;18.81;62.19;99365.47;4360273;32;32722;-91
2023/09/01 05:20:27;;;;;;;4.80;2.33;;;;;;;18.80;62.53;99379.50;4374476;32;33485;-91
2023/09/01 05:22:54;;;;;;;4.15;2.20;;;;;;;18.94;62.33;99377.50;4373488;32;33726;-85
2023/09/01 05:25:22;;;;;;;4.93;2.47;;;;;;;18.99;62.12;99381.81;4375376;32;34800;-89
2023/09/01 05:27:50;;;;;;;5.87;2.78;;;;;;;19.08;61.97;99373.75;4362289;32;33806;-87
2023/09/01 05:30:18;;;;;;;5.18;2.60;;;;;;;19.20;61.62;99373.50;4375578;32;33785;-89
2023/09/01 05:32:46;;;;;;;6.53;2.62;;;;;;;19.18;61.70;99380.56;4375656;32;33921;-90
2023/09/01 05:35:14;;;;;;;7.80;3.05;;;;;;;19.18;62.08;99376.19;4350227;32;32699;-85
2023/09/01 05:37:42;;;;;;;5.22;2.83;;;;;;;19.27;62.34;99377.75;4376110;32;33985;-90
2023/09/01 05:40:10;;;;;;;5.78;2.40;;;;;;;19.51;62.04;99386.94;4375737;32;33053;-88
2023/09/01 05:42:37;;;;;;;5.90;2.80;;;;;;;19.53;62.42;99381.66;4349161;32;33734;-85
2023/09/01 05:45:06;;;;;;;7.78;2.78;;;;;;;19.58;62.23;99379.78;4376099;32;34347;-87
2023/09/01 05:47:34;;;;;;;6.22;2.58;;;;;;;19.63;61.70;99385.88;4362599;32;33828;-91
2023/09/01 05:50:03;;;;;;;5.82;2.35;;;;;;;19.92;60.61;99391.34;4376013;32;34284;-91
2023/09/01 05:52:31;;;;;;;5.12;2.55;;;;;;;19.98;60.03;99386.88;4361676;32;33827;-85
2023/09/01 05:54:59;;;;;;;5.70;2.90;;;;;;;20.12;59.91;99392.72;4375326;32;34936;-90
2023/09/01 05:57:26;;;;;;;6.15;2.60;;;;;;;20.34;59.56;99396.59;4376136;32;33980;-90
2023/09/01 05:59:54;;;;;;;5.53;2.55;;;;;;;20.30;59.98;99402.78;4376120;32;34532;-92
2023/09/01 06:02:21;;;;;;;7.57;2.50;;;;;;;20.28;60.63;99393.22;4375522;32;33749;-89
2023/09/01 06:04:49;;;;;;;5.50;2.22;;;;;;;20.30;60.96;99400.16;4372921;32;35186;-91
2023/09/01 06:07:17;;;;;;;4.97;2.05;;;;;;;20.27;61.31;99407.28;4375908;32;35097;-91
2023/09/01 06:09:44;;;;;;;6.03;2.17;;;;;;;20.27;61.52;99402.91;4362352;32;32771;-89
2023/09/01 06:12:14;;;;;;;4.60;2.17;;;;;;;20.17;61.97;99396.94;4361461;32;33346;-86
2023/09/01 06:14:42;;;;;;;6.15;2.45;;;;;;;20.37;61.39;99399.13;4361041;32;33944;-87
2023/09/01 06:17:11;;;;;;;5.85;2.60;;;;;;;20.52;61.13;99394.44;4362542;32;34925;-92
2023/09/01 06:19:39;;;;;;;5.18;2.05;;;;;;;20.63;60.58;99400.31;4375891;32;33691;-91
2023/09/01 06:22:07;;;;;;;5.32;2.30;;;;;;;20.45;59.07;99390.19;4375561;32;34337;-89
2023/09/01 06:24:34;;;;;;;4.05;2.10;;;;;;;20.48;60.17;99398.00;4375480;32;33923;-87
2023/09/01 06:27:03;;;;;;;4.55;2.12;;;;;;;20.56;59.44;99388.19;4375848;32;33710;-90
2023/09/01 06:29:30;;;;;;;6.28;2.08;;;;;;;20.52;59.30;99386.53;4362148;32;32542;-91
2023/09/01 06:31:59;;;;;;;6.53;2.40;;;;;;;20.51;58.74;99390.06;4375995;32;33764;-87
2023/09/01 06:34:26;;;;;;;6.18;2.10;;;;;;;20.62;59.02;99393.31;4375306;32;34619;-88
2023/09/01 06:36:55;;;;;;;6.30;2.20;;;;;;;20.76;58.30;99385.94;4349569;32;33945;-86
2023/09/01 06:39:22;;;;;;;5.22;2.00;;;;;;;20.72;58.55;99393.94;4362063;32;32855;-90
2023/09/01 06:41:50;;;;;;;6.30;2.33;;;;;;;21.11;56.31;99386.78;4362333;32;34428;-89
2023/09/01 06:44:18;;;;;;;5.37;2.17;;;;;;;20.96;57.11;99387.19;4346642;32;33096;-91
2023/09/01 06:46:46;;;;;;;4.55;2.00;;;;;;;21.13;55.15;99390.25;4360894;32;33893;-91
2023/09/01 06:49:15;;;;;;;4.75;2.05;;;;;;;21.25;54.70;99391.69;4347591;32;34624;-90
2023/09/01 06:51:42;;;;;;;5.12;2.22;;;;;;;21.16;54.17;99394.56;4360480;32;33641;-86
2023/09/01 06:54:10;;;;;;;5.82;2.20;;;;;;;21.43;53.23;99391.22;4361642;32;34937;-89
2023/09/01 06:56:37;;;;;;;5.80;2.22;;;;;;;21.29;55.31;99390.69;4361729;32;33345;-88
2023/09/01 06:59:05;;;;;;;6.53;2.70;;;;;;;21.53;52.96;99402.38;4375452;32;34233;-85
2023/09/01 07:01:32;;;;;;;5.50;2.20;;;;;;;21.25;53.30;99411.03;4375738;32;34611;-89
2023/09/01 07:04:03;;;;;;;6.30;2.50;;;;;;;20.99;54.54;99413.47;4361853;32;34796;-86
2023/09/01 07:06:30;;;;;;;5.55;2.55;;;;;;;21.04;54.30;99423.00;4375131;32;34163;-92
2023/09/01 07:08:58;;;;;;;4.43;2.10;;;;;;;21.55;52.28;99414.59;4375721;32;34507;-89
2023/09/01 07:11:25;;;;;;;4.90;2.00;;;;;;;21.29;53.91;99419.69;4375920;32;33987;-91
2023/09/01 07:13:53;;;;;;;5.93;2.22;;;;;;;21.68;53.27;99419.56;4375226;32;34909;-86
2023/09/01 07:16:20;;;;;;;6.57;2.30;;;;;;;21.82;52.09;99417.38;4375653;32;34895;-91
2023/09/01 07:18:48;;;;;;;4.80;2.28;;;;;;;21.52;53.11;99420.00;4375811;32;33318;-91
2023/09/01 07:21:16;;;;;;;6.68;2.47;;;;;;;21.74;53.57;99416.72;4361706;32;33250;-92
2023/09/01 07:23:43;;;;;;;5.18;2.62;;;;;;;22.50;51.14;99419.75;4361606;32;32620;-91
2023/09/01 07:26:11;;;;;;;4.40;2.00;;;;;;;22.68;52.21;99427.97;4349506;32;32718;-86
2023/09/01 07:28:38;;;;;;;4.43;2.12;;;;;;;22.58;49.88;99417.72;4361842;32;32537;-88
2023/09/01 07:31:12;;;;;;;4.12;1.90;;;;;;;22.97;49.61;99422.63;4361959;32;35172;-92
2023/09/01 07:33:42;;;;;;;4.82;2.30;;;;;;;23.30;49.42;99425.91;4349345;32;33966;-91
2023/09/01 07:36:10;;;;;;;4.32;2.03;;;;;;;23.02;48.95;99433.03;4361574;32;33172;-92
2023/09/01 07:38:38;;;;;;;5.05;2.00;;;;;;;23.33;48.22;99431.97;4375355;32;34476;-94
2023/09/01 07:41:07;;;;;;;5.87;2.30;;;;;;;23.50;48.50;99435.78;4361853;32;34056;-93
2023/09/01 07:43:35;;;;;;;5.05;2.20;;;;;;;23.38;48.51;99438.00;4375100;32;34659;-91
2023/09/01 07:46:03;;;;;;;5.78;2.90;;;;;;;23.83;47.97;99432.84;4375124;32;33771;-95
2023/09/01 07:48:31;;;;;;;7.15;2.55;;;;;;;23.95;48.81;99434.19;4374516;32;34234;-85
2023/09/01 07:50:58;;;;;;;4.53;2.03;;;;;;;24.37;46.36;99436.97;4375377;32;33990;-93
2023/09/01 07:53:26;;;;;;;5.87;2.00;;;;;;;23.45;48.38;99423.59;4375077;32;34984;-88
2023/09/01 07:55:54;;;;;;;5.65;2.08;;;;;;;23.98;48.52;99429.63;4361330;32;33802;-88
2023/09/01 07:58:21;;;;;;;5.07;2.20;;;;;;;24.11;47.16;99430.00;4374538;32;33736;-86
2023/09/01 08:00:49;;;;;;;7.75;2.30;;;;;;;24.08;47.70;99423.97;4374921;32;33690;-90
2023/09/01 08:03:16;;;;;;;6.60;2.55;;;;;;;24.16;48.70;99430.69;4374350;32;34209;-83
2023/09/01 08:05:44;;;;;;;4.57;2.12;;;;;;;24.17;48.24;99421.84;4373756;32;34241;-88
2023/09/01 08:08:13;;;;;;;6.12;2.45;;;;;;;24.35;47.96;99430.84;4374524;32;34735;-86
2023/09/01 08:10:42;;;;;;;5.03;2.15;;;;;;;24.09;45.86;99431.84;4360894;32;34093;-89
2023/09/01 08:13:09;;;;;;;3.97;1.98;;;;;;;24.17;47.39;99440.38;4374647;32;33680;-90
2023/09/01 08:15:37;;;;;;;4.15;1.80;;;;;;;24.36;46.60;99445.84;4361165;32;34237;-85
2023/09/01 08:18:05;;;;;;;4.03;1.87;;;;;;;24.57;48.20;99441.50;4374674;32;33730;-87
2023/09/01 08:20:33;;;;;;;6.00;1.95;;;;;;;24.61;46.89;99451.03;4361570;32;32823;-89
2023/09/01 08:23:00;;;;;;;5.60;2.33;;;;;;;24.43;48.25;99447.31;4361039;32;34246;-91
2023/09/01 08:25:28;;;;;;;9.02;2.30;;;;;;;24.42;45.79;99447.41;4374441;32;33889;-86
2023/09/01 08:27:56;;;;;;;5.50;1.98;;;;;;;24.20;47.35;99449.97;4370243;32;33799;-83
2023/09/01 08:30:23;;;;;;;4.82;2.40;;;;;;;24.09;49.60;99453.03;4374601;32;34138;-89
2023/09/01 08:32:51;;;;;;;5.53;2.20;;;;;;;24.00;47.85;99450.75;4348781;32;34434;-84
2023/09/01 08:35:19;;;;;;;4.62;2.20;;;;;;;24.06;46.95;99447.03;4374645;32;34078;-92
2023/09/01 08:37:46;;;;;;;5.05;2.17;;;;;;;24.17;46.10;99450.09;4361248;32;33304;-94
2023/09/01 08:40:14;;;;;;;5.45;2.17;;;;;;;24.06;47.06;99447.88;4374623;32;33660;-84
2023/09/01 08:42:46;;;;;;;5.80;1.80;;;;;;;24.12;47.23;99444.97;4361020;32;33652;-90
2023/09/01 08:45:16;;;;;;;8.60;2.78;;;;;;;23.75;48.13;99442.84;4348278;32;33389;-86
2023/09/01 08:47:48;;;;;;;6.43;2.33;;;;;;;23.83;48.24;99442.56;4360679;32;33693;-90
2023/09/01 08:50:17;;;;;;;5.43;2.22;;;;;;;23.67;49.97;99440.47;4361102;32;34831;-85
2023/09/01 08:52:46;;;;;;;4.72;2.58;;;;;;;24.20;47.17;99434.94;4360906;32;34330;-84
2023/09/01 08:55:16;;;;;;;4.28;2.20;;;;;;;23.75;48.36;99430.50;4373015;32;34841;-86
2023/09/01 08:57:47;;;;;;;5.18;2.15;;;;;;;23.99;49.14;99441.94;4374743;32;33708;-94
2023/09/01 09:00:15;;;;;;;3.70;1.80;;;;;;;24.45;46.88;99436.69;4346990;32;34076;-86
2023/09/01 09:02:44;;;;;;;3.28;1.65;;;;;;;24.33;48.06;99437.16;4359107;32;34162;-90
2023/09/01 09:05:27;;;;;;;3.10;1.80;;;;;;;24.37;47.54;99438.75;4346562;32;34159;-89
2023/09/01 09:08:03;;;;;;;3.95;1.50;;;;;;;24.43;47.35;99441.16;4360680;32;33353;-85
2023/09/01 09:10:39;;;;;;;3.30;1.55;;;;;;;24.47;47.34;99437.47;4345643;32;34629;-84
2023/09/01 09:13:26;;;;;;;4.20;1.83;;;;;;;24.67;46.21;99436.69;4358370;32;33737;-85
2023/09/01 09:16:13;;;;;;;3.58;1.60;;;;;;;24.24;46.35;99431.28;4360878;32;34044;-92
2023/09/01 09:18:45;;;;;;;3.70;1.70;;;;;;;24.61;46.83;99428.97;4348031;32;34172;-84
2023/09/01 09:21:30;;;;;;;4.82;1.60;;;;;;;24.98;45.09;99428.31;4347939;32;33159;-83
2023/09/01 09:24:00;;;;;;;3.72;1.75;;;;;;;24.66;46.94;99433.19;4359530;32;33380;-88
2023/09/01 09:26:55;;;;;;;4.95;2.00;;;;;;;25.05;44.24;99424.50;4349470;32;32866;-89
2023/09/01 09:29:24;;;;;;;4.75;1.90;;;;;;;24.93;44.37;99425.03;4347407;32;33478;-87
2023/09/01 09:31:52;;;;;;;4.85;2.03;;;;;;;24.89;45.36;99426.03;4347760;32;33257;-89
2023/09/01 09:34:22;;;;;;;5.85;1.80;;;;;;;24.83;44.57;99426.31;4346807;32;33822;-88
2023/09/01 09:36:50;;;;;;;3.35;1.70;;;;;;;24.84;44.89;99418.28;4325471;32;33821;-92
2023/09/01 09:39:25;;;;;;;5.12;1.90;;;;;;;24.62;44.82;99426.25;4361068;32;33741;-92
2023/09/01 09:41:54;;;;;;;;;;;;;;;24.77;46.64;99427.41;4347217;32;34142;-96
2023/09/01 09:44:35;;;;;;;3.78;2.08;;;;;;;25.21;44.92;99411.47;4363203;32;33919;-84
2023/09/01 09:47:10;;;;;;;5.50;1.85;;;;;;;24.97;44.04;99414.22;4361249;32;33995;-87
2023/09/01 09:49:38;;;;;;;4.65;1.90;;;;;;;24.86;45.15;99413.78;4348287;32;33345;-85
2023/09/01 09:52:09;;;;;;;5.00;2.28;;;;;;;25.08;45.52;99408.44;4359592;32;34476;-88
2023/09/01 09:54:38;;;;;;;4.07;2.10;;;;;;;25.19;44.45;99405.34;4347800;32;35354;-84
2023/09/01 09:57:07;;;;;;;4.45;1.87;;;;;;;25.47;44.31;99412.97;4364441;32;33660;-85
2023/09/01 09:59:45;;;;;;;7.12;1.85;;;;;;;25.10;43.53;99411.91;4362506;32;33230;-87
2023/09/01 10:02:29;;;;;;;4.10;2.00;;;;;;;25.29;43.76;99411.97;4361601;32;33463;-85
2023/09/01 10:04:58;;;;;;;6.40;1.98;;;;;;;25.84;42.56;99408.72;4350125;32;33351;-85
2023/09/01 10:07:26;;;;;;;3.87;1.70;;;;;;;25.82;42.81;99405.25;4361758;32;33322;-90
2023/09/01 10:09:53;;;;;;;4.70;1.95;;;;;;;25.62;42.23;99403.47;4354608;32;34055;-84
2023/09/01 10:12:21;;;;;;;3.75;1.70;;;;;;;25.91;41.13;99411.00;4362189;32;33951;-91
2023/09/01 10:14:50;;;;;;;4.25;1.80;;;;;;;25.99;42.65;99413.31;4362241;32;34216;-91
2023/09/01 10:17:18;;;;;;;4.82;1.83;;;;;;;26.08;42.61;99412.88;4350561;32;33698;-86
2023/09/01 10:19:49;;;;;;;3.87;1.90;;;;;;;26.16;41.25;99404.53;4351286;32;33448;-84
2023/09/01 10:22:19;;;;;;;3.78;2.08;;;;;;;26.24;42.26;99409.47;4376087;32;33822;-84
2023/09/01 10:25:16;;;;;;;3.67;2.00;;;;;;;26.53;41.80;99400.16;4366600;32;34176;-83
2023/09/01 10:28:05;;;;;;;3.15;1.40;;;;;;;26.38;39.98;99399.91;4360896;32;34273;-87
2023/09/01 10:30:41;;;;;;;4.10;1.45;;;;;;;26.40;39.09;99399.81;4360808;32;33664;-86
2023/09/01 10:33:26;;;;;;;3.80;1.80;;;;;;;26.41;39.31;99410.41;4372342;32;34653;-92
2023/09/01 10:35:57;;;;;;;3.60;1.42;;;;;;;26.57;39.19;99404.38;4362747;32;33965;-82
2023/09/01 10:38:34;;;;;;;5.97;1.48;;;;;;;26.53;40.43;99400.16;4361580;32;34148;-84
2023/09/01 10:41:02;;;;;;;5.28;2.17;;;;;;;26.78;38.92;99402.44;4375712;32;33310;-85
2023/09/01 10:43:41;;;;;;;5.30;1.83;;;;;;;26.85;39.76;99393.22;4362164;32;33937;-83
2023/09/01 10:46:14;;;;;;;3.40;1.48;;;;;;;26.83;39.24;99405.75;4375702;32;34037;-93
2023/09/01 10:48:57;;;;;;;3.17;1.58;;;;;;;26.76;39.67;99401.66;4375726;32;34198;-83
2023/09/01 10:51:33;;;;;;;4.30;1.77;;;;;;;26.53;38.83;99389.50;4376143;32;33669;-84
2023/09/01 10:54:30;;;;;;;4.22;1.50;;;;;;;26.50;39.48;99394.97;4375766;32;33938;-83
2023/09/01 10:57:02;;;;;;;5.37;2.20;;;;;;;26.81;39.91;99392.50;4373800;32;34879;-86
2023/09/01 10:59:31;;;;;;;3.87;1.75;;;;;;;26.86;39.21;99389.63;4360436;32;34571;-82
2023/09/01 11:02:18;;;;;;;4.12;1.37;;;;;;;27.11;38.59;99394.56;4376220;32;33646;-86
2023/09/01 11:04:47;;;;;;;3.67;1.60;;;;;;;26.84;40.23;99392.34;4362900;32;33634;-83
2023/09/01 11:07:15;;;;;;;4.18;1.70;;;;;;;26.99;41.17;99395.19;4371061;32;34116;-83
2023/09/01 11:09:50;;;;;;;3.70;1.80;;;;;;;27.06;38.97;99391.28;4375397;32;34705;-91
2023/09/01 11:12:18;;;;;;;5.25;1.70;;;;;;;26.93;38.81;99396.34;4361903;32;33912;-94
2023/09/01 11:14:59;;;;;;;8.52;1.95;;;;;;;26.96;40.04;99398.00;4362258;32;33526;-81
2023/09/01 11:17:40;;;;;;;5.57;1.58;;;;;;;26.61;38.83;99390.84;4361660;32;34022;-85
2023/09/01 11:20:10;;;;;;;3.50;1.70;;;;;;;26.81;39.54;99391.66;4361860;32;33849;-84
2023/09/01 11:22:39;;;;;;;5.12;1.70;;;;;;;26.76;39.44;99391.87;4361935;32;33667;-83
2023/09/01 11:25:14;;;;;;;3.53;1.58;;;;;;;27.14;37.85;99386.44;4356680;32;34514;-82
2023/09/01 11:27:43;;;;;;;;;;;;;;;27.11;39.10;99389.25;4375776;32;35265;-83
2023/09/01 11:30:11;;;;;;;5.37;1.50;;;;;;;27.43;38.19;99384.94;4361207;32;34352;-82
2023/09/01 11:32:39;;;;;;;3.12;1.52;;;;;;;27.17;39.18;99389.81;4375164;32;33588;-82
2023/09/01 11:35:09;;;;;;;4.12;1.77;;;;;;;27.22;38.57;99383.37;4374670;32;33654;-82
2023/09/01 11:37:41;;;;;;;3.95;1.62;;;;;;;27.20;37.66;99387.91;4375423;32;34096;-81
2023/09/01 11:40:09;;;;;;;3.55;1.70;;;;;;;27.43;38.50;99387.59;4351244;32;33867;-93
2023/09/01 11:42:39;;;;;;;3.67;1.40;;;;;;;27.33;38.29;99392.53;4349746;32;33688;-83
2023/09/01 11:45:08;;;;;;;6.60;1.80;;;;;;;27.46;38.37;99387.41;4361982;32;33996;-81
2023/09/01 11:47:36;;;;;;;4.07;1.80;;;;;;;27.13;37.74;99385.59;4383015;32;34880;-80